Historyczne dane pomiarowe

Dodano dane terminowe – wersja testowa.

Dane z okresu 1951-2019

Wersja bazy: 1.34 [2019-03-16, lista zmian], aktualizacja planowana na 2019-04-15

Dane meteo z obszaru Polski uzyskane na podstawie danych udostępnionych przez Instytut Meteorologii i Gospodarki Wodnej – Państwowy Instytut Badawczy.

 

Wybierz Datę:    

       

TemperaturaWilgotnośćZachmurzenieWiatrCiśnienieWidzialnośćZjawiska
 Data    tng td wb rh cc ccl cl cm ch dir g1 g2 mslp ppp      
1999-07-12 00:00:00 20.8--- 15.8 17.673wxwxwx3wx--1018.1 995.6 0.0---wx
1999-07-12 01:00:00 20.0--- 15.2 17.074wxwxwx3wx--1017.8 995.2----wx
1999-07-12 02:00:00 19.4--- 15.1 16.776wxwxwx4wx--1017.3 994.7----wx
1999-07-12 03:00:00 18.7--- 14.3 16.076wxwxwx3wx--1017.2 994.6----wx
1999-07-12 04:00:00 17.9--- 14.5 15.880wxwxwxwx3wx--1017.2 994.5----wx
1999-07-12 05:00:00 17.8--- 14.2 15.680wxwxwxwx3wx--1016.9 994.2----wx
1999-07-12 06:00:00 18.4--- 14.3 15.977wxwxwx3wx--1016.9 994.2 0.0---wx
1999-07-12 07:00:00 21.2--- 15.3 17.569wxwxwx2wx--1016.3 993.9----wx
1999-07-12 08:00:00 21.8--- 15.7 17.968wxwxwxwx2wx--1016.2 993.8----wx
1999-07-12 09:00:00 23.6--- 13.6 17.454wxwxwxwx3wx--1015.8 993.6----wx
1999-07-12 10:00:00 24.6--- 15.6 18.857wxwxwxwx3wx--1015.5 993.3----wx
1999-07-12 11:00:00 25.5--- 15.7 19.255wxwxwxwx3wx--1015.2 993.1----wx
1999-07-12 12:00:00 26.4--- 16.6 20.055wxwxwxwx3wx--1014.1 992.1 0.0---wx
1999-07-12 13:00:00 27.8--- 17.3 20.853wxwxwxwx4wx--1013.5 991.6----wx
1999-07-12 14:00:00 27.1--- 16.9 20.454wxwxwxwx2wx--1012.9 991.0----wx
1999-07-12 15:00:00 26.7--- 16.6 20.154wxwxwxwx4wx--1012.8 990.9----wx
1999-07-12 16:00:00 26.1--- 16.6 19.956wxwxwxwx2wx--1012.2 990.2----wx
1999-07-12 17:00:00 25.6--- 17.3 20.160wxwxwxwx2wx--1012.1 990.1----wx
1999-07-12 18:00:00 24.3--- 17.6 19.966wxwxwxwx1wx--1011.8 989.7 0.0---wx
1999-07-12 19:00:00 23.4--- 17.3 19.469wxwxwxwxwx2wx--1011.7 989.5----wx
1999-07-12 20:00:00 23.3--- 18.0 19.872wxwxwxwxwx2wx--1011.7 989.5----wx
1999-07-12 21:00:00 22.1--- 17.5 19.175wxwxwxwx3wx--1011.8 989.5----wx
1999-07-12 22:00:00 21.5--- 17.4 18.877wxwxwxwx2wx--1011.4 989.1----wx
1999-07-12 23:00:00 20.2--- 16.6 17.980wxwxwx3wx--1011.3 988.9----wx

 

Źródłem pochodzenia danych jest Instytut Meteorologii i Gospodarki Wodnej – Państwowy Instytut Badawczy. Dane Instytutu Meteorologii i Gospodarki Wodnej – Państwowego Instytutu Badawczego zostały przetworzone.

Dane źródłowe można odnaleźć na stronie https://dane.imgw.pl